Time;durP1;ratioP1;P1;durP2;ratioP2;P2;SDS_P1;SDS_P2;PMS_P1;PMS_P2;Temp;Humidity;BMP_temperature;BMP_pressure;BME280_temperature;BME280_humidity;BME280_pressure;Samples;Min_cycle;Max_cycle;Signal;HPM_P1;HPM_P2
2022/06/06 06:35:40;;;;;;;7.78;7.15;;;15.10;99.90;;;;;;5090817;27;20566;-71
2022/06/06 06:38:27;;;;;;;7.63;6.82;;;15.30;99.90;;;;;;5090905;28;20256;-71
2022/06/06 06:40:55;;;;;;;7.00;6.40;;;15.40;99.90;;;;;;5090873;28;20253;-71
2022/06/06 06:43:32;;;;;;;7.70;7.00;;;15.40;99.90;;;;;;5090811;28;20163;-71
2022/06/06 06:46:01;;;;;;;6.90;6.35;;;15.40;99.90;;;;;;5089442;28;20171;-71
2022/06/06 06:48:36;;;;;;;6.97;6.38;;;15.60;99.90;;;;;;5089376;28;20265;-71
2022/06/06 06:51:15;;;;;;;6.75;6.03;;;15.70;99.90;;;;;;5090641;28;20182;-71
2022/06/06 06:54:03;;;;;;;6.45;5.95;;;15.70;99.90;;;;;;5090618;28;20191;-72
2022/06/06 06:56:50;;;;;;;6.60;6.00;;;15.80;99.90;;;;;;5090549;28;20160;-72
2022/06/06 06:59:37;;;;;;;5.30;4.85;;;15.90;99.90;;;;;;5090509;28;20191;-71
2022/06/06 07:08:49;;;;;;;4.60;4.30;;;15.80;99.90;;;;;;5090636;28;20171;-71
2022/06/06 07:11:47;;;;;;;4.88;4.57;;;15.80;99.90;;;;;;5090378;28;20168;-72
2022/06/06 07:14:21;;;;;;;4.45;4.05;;;15.70;99.90;;;;;;5090165;28;20191;-71
2022/06/06 07:16:53;;;;;;;4.05;3.75;;;15.70;99.90;;;;;;5090092;28;20187;-72
2022/06/06 07:19:22;;;;;;;4.90;4.55;;;15.60;99.90;;;;;;5090408;28;20178;-72
2022/06/06 07:21:49;;;;;;;4.20;3.90;;;15.50;99.90;;;;;;5090605;28;20259;-72
2022/06/06 07:24:20;;;;;;;4.20;3.88;;;15.40;99.90;;;;;;5089961;28;20196;-71
2022/06/06 07:26:47;;;;;;;3.83;3.63;;;15.50;99.90;;;;;;5090021;28;20641;-71
2022/06/06 07:29:15;;;;;;;3.90;3.58;;;15.50;99.90;;;;;;5089884;28;20175;-72
2022/06/06 07:32:05;;;;;;;3.70;3.40;;;15.40;99.90;;;;;;5089918;28;20168;-71
2022/06/06 07:34:46;;;;;;;6.20;3.40;;;15.60;99.90;;;;;;5089564;28;20560;-72
2022/06/06 07:37:17;;;;;;;3.70;3.40;;;15.60;99.90;;;;;;5089876;28;20171;-72
2022/06/06 07:40:23;;;;;;;3.13;2.90;;;15.70;99.90;;;;;;5089742;28;20164;-72
2022/06/06 07:43:28;;;;;;;2.45;2.25;;;15.70;99.90;;;;;;5088465;28;20171;-72
2022/06/06 07:46:08;;;;;;;4.85;2.47;;;15.60;99.90;;;;;;5080904;28;20172;-72
2022/06/06 07:48:51;;;;;;;2.80;2.60;;;15.50;99.90;;;;;;5076091;28;20172;-72
2022/06/06 07:51:40;;;;;;;2.58;2.38;;;15.50;99.90;;;;;;5076072;28;20174;-72
2022/06/06 07:54:42;;;;;;;2.75;2.55;;;15.50;99.90;;;;;;5074739;28;20602;-72
2022/06/06 07:57:24;;;;;;;2.78;2.58;;;15.50;99.90;;;;;;5074686;28;20183;-71
2022/06/06 08:00:09;;;;;;;2.95;2.65;;;15.60;99.90;;;;;;5075912;28;20218;-72
2022/06/06 08:02:50;;;;;;;3.67;2.63;;;15.80;99.90;;;;;;5074466;28;20196;-72
2022/06/06 08:05:34;;;;;;;2.95;2.67;;;16.20;99.90;;;;;;5075734;28;20294;-71
2022/06/06 08:08:20;;;;;;;4.53;2.55;;;16.40;99.90;;;;;;5075716;28;20693;-71
2022/06/06 08:10:47;;;;;;;2.33;2.13;;;16.60;99.90;;;;;;5075672;28;20661;-71
2022/06/06 08:13:13;;;;;;;2.28;2.08;;;16.70;99.90;;;;;;5075461;28;20251;-71
2022/06/06 08:16:08;;;;;;;2.00;1.90;;;16.80;99.90;;;;;;5074225;28;20263;-72
2022/06/06 08:18:59;;;;;;;2.20;2.00;;;16.80;99.90;;;;;;5075594;28;20165;-72
2022/06/06 08:21:46;;;;;;;2.72;1.73;;;16.80;99.90;;;;;;5074220;28;20561;-71
2022/06/06 08:24:20;;;;;;;10.88;2.35;;;16.70;99.90;;;;;;5075387;28;20626;-72
2022/06/06 08:26:48;;;;;;;2.33;2.15;;;16.50;99.90;;;;;;5074010;28;20225;-71
2022/06/06 08:29:16;;;;;;;2.00;1.90;;;16.40;99.90;;;;;;5075259;28;20172;-72
2022/06/06 08:31:42;;;;;;;3.13;1.85;;;16.30;99.90;;;;;;5075272;28;20170;-71
2022/06/06 08:34:07;;;;;;;2.10;2.00;;;16.20;99.90;;;;;;5073622;28;20228;-72
2022/06/06 08:36:57;;;;;;;2.10;2.00;;;16.10;99.90;;;;;;5075083;28;20226;-71
2022/06/06 08:39:38;;;;;;;1.88;1.77;;;16.10;99.90;;;;;;5075024;28;20164;-72
2022/06/06 08:42:30;;;;;;;1.90;1.80;;;16.20;99.90;;;;;;5073769;28;20164;-72
2022/06/06 08:45:12;;;;;;;2.85;1.73;;;16.20;99.90;;;;;;5075225;28;20526;-72
2022/06/06 08:48:05;;;;;;;3.45;2.40;;;16.30;99.90;;;;;;5074889;28;20271;-72
2022/06/06 08:50:49;;;;;;;2.90;1.75;;;16.30;99.90;;;;;;5074917;28;20645;-72
2022/06/06 08:53:46;;;;;;;2.08;1.98;;;16.40;99.90;;;;;;5074782;28;20169;-72
2022/06/06 08:56:39;;;;;;;1.30;1.30;;;16.40;99.90;;;;;;5074636;28;20207;-72
2022/06/06 08:59:23;;;;;;;1.50;1.50;;;16.60;99.90;;;;;;5073093;28;20629;-72
2022/06/06 09:02:07;;;;;;;1.40;1.40;;;16.70;99.90;;;;;;5074646;28;20220;-73
2022/06/06 09:04:48;;;;;;;2.67;1.80;;;17.00;99.90;;;;;;5073305;28;20191;-73
2022/06/06 09:07:41;;;;;;;2.45;1.80;;;17.40;99.90;;;;;;5074526;28;20163;-73
2022/06/06 09:10:44;;;;;;;1.50;1.27;;;17.70;99.90;;;;;;5074449;28;20176;-73
2022/06/06 09:13:51;;;;;;;2.40;1.50;;;17.60;99.90;;;;;;5074366;28;20641;-73
2022/06/06 09:16:39;;;;;;;1.65;1.55;;;17.60;99.90;;;;;;5073103;28;20160;-74
2022/06/06 09:19:26;;;;;;;2.17;1.30;;;17.80;99.90;;;;;;5073030;28;20169;-73
2022/06/06 09:22:02;;;;;;;1.35;1.35;;;17.80;99.90;;;;;;5074370;28;20160;-73
2022/06/06 09:24:56;;;;;;;1.45;1.45;;;17.80;99.90;;;;;;5072891;28;20225;-73
2022/06/06 09:27:30;;;;;;;1.73;1.60;;;17.80;99.90;;;;;;5074178;28;20168;-73
2022/06/06 09:30:18;;;;;;;1.13;1.13;;;17.80;99.90;;;;;;5074088;28;20172;-73
2022/06/06 09:32:58;;;;;;;1.30;1.30;;;17.70;99.90;;;;;;5074079;28;20546;-73
2022/06/06 09:35:53;;;;;;;1.33;1.33;;;17.60;99.90;;;;;;5072685;28;20578;-73
2022/06/06 09:38:40;;;;;;;1.77;1.38;;;17.70;99.90;;;;;;5072710;28;20175;-73
2022/06/06 09:41:19;;;;;;;4.75;1.23;;;17.80;99.90;;;;;;5073846;28;20199;-74
2022/06/06 09:43:54;;;;;;;1.17;1.17;;;17.70;99.90;;;;;;5073808;28;20183;-73
2022/06/06 09:46:56;;;;;;;1.50;1.40;;;17.80;99.90;;;;;;5073837;28;20479;-73
2022/06/06 09:50:00;;;;;;;2.63;1.10;;;18.00;99.90;;;;;;5072425;28;20205;-73
2022/06/06 09:52:59;;;;;;;1.40;1.40;;;18.20;99.90;;;;;;5073706;28;20226;-73
2022/06/06 09:59:12;;;;;;;2.78;1.23;;;18.20;99.90;;;;;;5073850;28;20210;-73
2022/06/06 10:01:53;;;;;;;1.33;1.20;;;18.10;99.90;;;;;;5073527;28;20183;-73
2022/06/06 10:04:43;;;;;;;1.20;1.20;;;18.00;99.90;;;;;;5073497;28;20641;-72
2022/06/06 10:07:26;;;;;;;2.65;1.35;;;17.90;99.90;;;;;;5073590;28;20174;-73
2022/06/06 10:10:13;;;;;;;1.15;1.08;;;17.70;99.90;;;;;;5071957;28;20272;-72
2022/06/06 10:12:55;;;;;;;1.63;1.10;;;17.50;99.90;;;;;;5073360;28;20179;-73
2022/06/06 10:15:37;;;;;;;1.83;1.73;;;17.50;99.90;;;;;;5073301;28;20695;-72
2022/06/06 10:18:19;;;;;;;3.25;2.00;;;17.40;99.90;;;;;;5072091;28;20180;-74
2022/06/06 10:20:51;;;;;;;1.30;1.30;;;17.60;99.90;;;;;;5073405;28;20245;-74
2022/06/06 10:23:22;;;;;;;1.48;1.33;;;17.60;99.90;;;;;;5073327;28;20566;-74
2022/06/06 10:26:01;;;;;;;1.33;1.33;;;17.50;99.90;;;;;;5071974;28;20638;-74
2022/06/06 10:28:33;;;;;;;1.52;1.10;;;17.40;99.90;;;;;;5071992;28;20203;-74
2022/06/06 10:31:17;;;;;;;1.60;1.50;;;17.40;99.90;;;;;;5073128;28;20249;-74
2022/06/06 10:34:16;;;;;;;1.33;1.20;;;17.50;99.90;;;;;;5072975;28;20295;-74
2022/06/06 10:37:13;;;;;;;1.88;1.45;;;17.70;99.90;;;;;;5073242;28;20164;-75
2022/06/06 10:40:02;;;;;;;2.78;1.55;;;17.90;99.90;;;;;;5073070;28;20198;-74
2022/06/06 10:43:10;;;;;;;1.85;1.75;;;18.20;99.90;;;;;;5073127;28;20246;-75
2022/06/06 10:45:37;;;;;;;4.50;1.70;;;18.40;99.90;;;;;;5073118;28;20168;-75
2022/06/06 10:48:37;;;;;;;1.50;1.30;;;18.50;99.90;;;;;;5073082;28;20251;-74
2022/06/06 10:51:42;;;;;;;1.20;1.20;;;18.70;99.90;;;;;;5073029;28;20254;-74
2022/06/06 10:54:38;;;;;;;1.42;1.20;;;18.90;99.90;;;;;;5071526;28;20219;-74
2022/06/06 10:57:33;;;;;;;1.38;1.30;;;19.10;99.90;;;;;;5072998;28;20684;-74
2022/06/06 11:00:42;;;;;;;3.30;1.38;;;19.10;99.90;;;;;;5072922;28;20164;-74
2022/06/06 11:03:28;;;;;;;1.30;1.30;;;18.90;99.90;;;;;;5070811;28;20684;-74
2022/06/06 11:06:17;;;;;;;1.25;1.25;;;18.60;99.90;;;;;;5072684;28;20187;-74
2022/06/06 11:09:16;;;;;;;1.75;1.65;;;18.70;99.90;;;;;;5072888;28;20297;-75
2022/06/06 11:12:00;;;;;;;1.20;1.13;;;18.70;99.90;;;;;;5072774;28;20169;-75
2022/06/06 11:14:34;;;;;;;2.10;0.75;;;18.90;99.90;;;;;;5072704;28;20222;-74
2022/06/06 11:17:26;;;;;;;1.17;1.17;;;18.90;99.90;;;;;;5072810;28;20164;-74
2022/06/06 11:20:13;;;;;;;0.90;0.90;;;18.80;99.90;;;;;;5072744;28;20239;-75
2022/06/06 11:22:42;;;;;;;1.60;0.90;;;18.80;99.90;;;;;;5076528;28;20174;-74
2022/06/06 11:25:14;;;;;;;0.95;0.95;;;18.70;99.90;;;;;;5076350;28;20160;-74
2022/06/06 11:27:43;;;;;;;1.40;1.20;;;18.70;99.90;;;;;;5076422;28;20164;-74
2022/06/06 11:30:12;;;;;;;1.58;1.17;;;18.80;99.90;;;;;;5076445;28;20171;-74
2022/06/06 11:32:52;;;;;;;1.65;1.30;;;19.00;99.90;;;;;;5075032;28;20175;-74
2022/06/06 11:35:54;;;;;;;1.50;0.95;;;19.20;99.90;;;;;;5075975;28;20264;-74
2022/06/06 11:38:49;;;;;;;2.10;0.88;;;19.40;99.90;;;;;;5076268;28;20168;-74
2022/06/06 11:41:52;;;;;;;0.82;0.82;;;19.60;99.90;;;;;;5074877;28;20183;-75
2022/06/06 11:44:26;;;;;;;1.38;1.10;;;19.50;99.90;;;;;;5076127;28;20164;-74
2022/06/06 11:47:10;;;;;;;1.40;1.20;;;19.30;99.90;;;;;;5076052;28;20560;-75
2022/06/06 11:49:48;;;;;;;1.20;1.10;;;19.20;99.90;;;;;;5074734;28;20662;-75
2022/06/06 11:52:32;;;;;;;1.48;1.42;;;19.20;99.90;;;;;;5075978;28;20163;-74
2022/06/06 11:55:18;;;;;;;1.25;0.95;;;19.30;99.90;;;;;;5074551;28;20273;-74
2022/06/06 11:58:02;;;;;;;2.08;1.27;;;19.30;99.90;;;;;;5074682;28;20168;-75
2022/06/06 12:01:00;;;;;;;1.55;1.20;;;19.50;99.90;;;;;;5074511;28;20620;-74
2022/06/06 12:04:03;;;;;;;1.35;1.35;;;19.60;99.90;;;;;;5074504;28;20192;-74
2022/06/06 12:06:42;;;;;;;1.85;1.00;;;19.70;99.90;;;;;;5075677;28;20167;-74
2022/06/06 12:09:46;;;;;;;1.42;1.02;;;19.80;99.90;;;;;;5075519;28;20250;-75
2022/06/06 12:12:37;;;;;;;0.82;0.82;;;20.00;99.90;;;;;;5074303;28;20172;-74
2022/06/06 12:15:30;;;;;;;1.17;1.10;;;20.20;99.90;;;;;;5075417;28;20213;-74
2022/06/06 12:18:20;;;;;;;1.38;1.30;;;20.20;99.90;;;;;;5075506;28;20186;-74
2022/06/06 12:21:11;;;;;;;1.02;1.00;;;20.20;99.90;;;;;;5075470;28;20259;-74
2022/06/06 12:23:51;;;;;;;1.05;1.05;;;20.10;99.90;;;;;;5075286;28;20168;-74
2022/06/06 12:26:17;;;;;;;2.17;1.20;;;20.00;99.90;;;;;;5075347;28;20510;-74
2022/06/06 12:29:13;;;;;;;1.30;1.30;;;19.80;99.90;;;;;;5075353;28;20188;-74
2022/06/06 12:31:39;;;;;;;0.90;0.90;;;19.50;99.90;;;;;;5073989;28;20584;-74
2022/06/06 12:34:19;;;;;;;1.02;1.02;;;19.50;99.90;;;;;;5074915;28;20222;-74
2022/06/06 12:36:56;;;;;;;1.00;1.00;;;19.50;99.90;;;;;;5073891;28;20172;-74
2022/06/06 12:39:39;;;;;;;1.73;1.38;;;19.70;99.90;;;;;;5075056;28;20183;-74
2022/06/06 12:42:45;;;;;;;1.10;1.10;;;19.80;99.90;;;;;;5074913;28;20175;-74
2022/06/06 12:45:28;;;;;;;1.00;1.00;;;19.90;99.90;;;;;;5074965;28;20168;-73
2022/06/06 12:47:56;;;;;;;1.02;1.00;;;19.50;99.90;;;;;;5074952;28;20167;-74
2022/06/06 12:50:34;;;;;;;0.98;0.98;;;19.10;99.90;;;;;;5074783;28;20167;-74
2022/06/06 12:53:24;;;;;;;2.25;1.30;;;18.80;99.90;;;;;;5074809;28;20172;-74
2022/06/06 12:56:17;;;;;;;1.20;1.20;;;18.60;99.90;;;;;;5074729;28;20228;-74
2022/06/06 12:59:00;;;;;;;1.17;1.13;;;18.70;99.90;;;;;;5073421;28;20175;-74
2022/06/06 13:01:37;;;;;;;1.27;1.20;;;18.80;99.90;;;;;;5074571;28;20183;-74
2022/06/06 13:04:21;;;;;;;1.98;1.30;;;19.00;99.90;;;;;;5074581;28;20175;-74
2022/06/06 13:07:12;;;;;;;1.40;1.38;;;19.40;99.90;;;;;;5074482;28;20168;-74
2022/06/06 13:09:55;;;;;;;1.42;1.33;;;19.80;99.90;;;;;;5074514;28;20168;-74
2022/06/06 13:12:40;;;;;;;1.30;1.20;;;20.10;99.90;;;;;;5074352;28;20171;-74
2022/06/06 13:15:12;;;;;;;1.20;1.20;;;20.40;99.90;;;;;;5073152;28;20719;-74
2022/06/06 13:18:01;;;;;;;2.65;1.17;;;20.30;99.90;;;;;;5072972;28;20182;-74
2022/06/06 13:20:55;;;;;;;1.65;1.33;;;20.30;99.90;;;;;;5074057;28;20207;-74
2022/06/06 13:23:33;;;;;;;8.50;2.80;;;20.10;99.90;;;;;;5074204;28;20172;-73
2022/06/06 13:26:16;;;;;;;3.55;1.27;;;19.90;99.90;;;;;;5072819;28;20202;-74
2022/06/06 13:28:51;;;;;;;1.20;1.20;;;19.70;99.90;;;;;;5074087;28;20237;-74
2022/06/06 13:31:33;;;;;;;1.30;1.20;;;19.90;99.90;;;;;;5074038;28;20172;-74
2022/06/06 13:34:20;;;;;;;1.40;1.35;;;20.00;99.90;;;;;;5073788;28;20264;-74
2022/06/06 13:37:16;;;;;;;1.10;1.10;;;20.30;99.90;;;;;;5072777;28;20176;-74
2022/06/06 13:39:56;;;;;;;1.30;1.30;;;20.60;99.90;;;;;;5073912;28;20179;-74
2022/06/06 13:42:59;;;;;;;1.10;1.10;;;20.90;99.90;;;;;;5073838;28;20171;-74
2022/06/06 13:45:47;;;;;;;1.10;1.10;;;21.20;99.90;;;;;;5073778;28;20220;-74
2022/06/06 13:48:49;;;;;;;1.50;1.20;;;21.20;99.90;;;;;;5073780;28;20195;-75
2022/06/06 13:51:48;;;;;;;1.85;1.20;;;21.10;99.90;;;;;;5073685;28;20178;-75
2022/06/06 13:54:30;;;;;;;1.80;1.00;;;21.40;99.90;;;;;;5072317;28;20187;-74
2022/06/06 13:57:14;;;;;;;1.10;1.10;;;21.70;99.90;;;;;;5072270;28;20632;-74
2022/06/06 13:59:59;;;;;;;0.80;0.80;;;21.40;99.90;;;;;;5073568;28;20171;-74
2022/06/06 14:02:49;;;;;;;1.27;1.17;;;21.10;99.90;;;;;;5072121;28;20200;-74
2022/06/06 14:05:39;;;;;;;5.25;1.10;;;20.60;99.90;;;;;;5073500;28;20174;-75
2022/06/06 14:08:12;;;;;;;1.75;1.50;;;20.30;99.90;;;;;;5073521;28;20576;-74
2022/06/06 14:10:56;;;;;;;1.02;0.93;;;19.90;99.90;;;;;;5073296;28;20655;-75
2022/06/06 14:13:45;;;;;;;1.17;1.13;;;20.00;99.90;;;;;;5073292;28;20176;-74
2022/06/06 14:16:18;;;;;;;4.53;1.27;;;20.30;99.90;;;;;;5073362;28;20637;-75
2022/06/06 14:18:45;;;;;;;1.52;1.40;;;20.90;99.90;;;;;;5072036;28;20171;-75
2022/06/06 14:21:35;;;;;;;1.25;1.15;;;21.00;99.90;;;;;;5071995;28;20167;-75
2022/06/06 14:24:10;;;;;;;1.20;0.88;;;21.20;99.90;;;;;;5073273;28;20164;-75
2022/06/06 14:26:36;;;;;;;0.90;0.90;;;21.70;99.90;;;;;;5073239;28;20253;-76
2022/06/06 14:29:15;;;;;;;1.50;0.93;;;21.60;99.90;;;;;;5072150;28;20651;-75
2022/06/06 14:31:54;;;;;;;1.70;1.20;;;21.70;99.90;;;;;;5073225;28;20167;-75
2022/06/06 14:34:36;;;;;;;15.00;2.78;;;21.90;99.90;;;;;;5072889;28;20211;-75
2022/06/06 14:37:16;;;;;;;2.10;0.82;;;21.80;99.90;;;;;;5073135;28;20195;-75
2022/06/06 14:39:44;;;;;;;3.33;0.95;;;21.80;99.90;;;;;;5073120;28;20225;-75
2022/06/06 14:42:12;;;;;;;1.05;0.90;;;21.60;99.90;;;;;;5071773;28;20167;-75
2022/06/06 14:44:42;;;;;;;1.45;1.20;;;21.70;99.90;;;;;;5073072;28;20198;-75
2022/06/06 14:47:20;;;;;;;3.88;0.98;;;21.70;99.90;;;;;;5073051;28;20203;-75
2022/06/06 14:52:39;;;;;;;0.85;0.85;;;21.70;99.90;;;;;;5073329;28;20209;-75
2022/06/06 14:55:07;;;;;;;0.80;0.80;;;22.10;99.90;;;;;;5073316;28;20200;-75
2022/06/06 14:57:34;;;;;;;1.20;1.10;;;22.40;99.90;;;;;;5076945;28;20565;-75
2022/06/06 15:00:03;;;;;;;1.45;1.35;;;22.50;99.90;;;;;;5075917;28;20179;-75
2022/06/06 15:02:29;;;;;;;2.50;1.10;;;22.40;99.90;;;;;;5076755;28;20183;-75
2022/06/06 15:05:34;;;;;;;1.00;1.00;;;21.80;99.90;;;;;;5076871;28;20537;-75
2022/06/06 15:08:29;;;;;;;2.28;0.85;;;21.10;99.90;;;;;;5074551;28;20175;-75
2022/06/06 15:11:02;;;;;;;0.80;0.80;;;20.80;99.90;;;;;;5074691;28;20200;-75
2022/06/06 15:13:29;;;;;;;1.58;1.27;;;20.60;99.90;;;;;;5075920;28;20640;-75
2022/06/06 15:15:56;;;;;;;1.02;0.90;;;20.50;99.90;;;;;;5076581;28;20511;-75
2022/06/06 15:18:28;;;;;;;3.42;0.93;;;20.50;99.90;;;;;;5076456;28;20491;-75
2022/06/06 15:20:56;;;;;;;5.53;1.13;;;20.50;99.90;;;;;;5076546;28;20167;-75
2022/06/06 15:23:27;;;;;;;1.80;0.98;;;20.80;99.90;;;;;;5076445;28;20195;-75
2022/06/06 15:26:00;;;;;;;1.02;0.90;;;21.20;99.90;;;;;;5076400;28;20199;-75
2022/06/06 15:28:35;;;;;;;2.83;0.90;;;21.30;99.90;;;;;;5076382;28;20523;-75
2022/06/06 15:31:18;;;;;;;1.08;1.08;;;21.10;99.90;;;;;;5075310;28;20171;-75
2022/06/06 15:34:05;;;;;;;3.38;1.13;;;20.90;99.90;;;;;;5076037;28;20219;-75
2022/06/06 15:36:49;;;;;;;4.07;0.93;;;20.50;99.90;;;;;;5076183;28;20159;-75
2022/06/06 15:39:48;;;;;;;1.58;1.05;;;20.50;99.90;;;;;;5076153;28;20171;-75
2022/06/06 15:42:35;;;;;;;1.90;1.20;;;20.50;99.90;;;;;;5076193;28;20160;-75
2022/06/06 15:45:27;;;;;;;1.35;1.25;;;20.60;99.90;;;;;;5076143;28;20187;-76
2022/06/06 15:48:20;;;;;;;1.45;1.10;;;20.80;99.90;;;;;;5076030;28;20168;-75
2022/06/06 15:50:52;;;;;;;1.25;1.05;;;21.00;99.90;;;;;;5075977;28;20645;-75
2022/06/06 15:53:41;;;;;;;1.10;1.10;;;20.90;99.90;;;;;;5075790;28;20225;-75
2022/06/06 15:56:31;;;;;;;2.67;1.30;;;21.00;99.90;;;;;;5075885;28;20623;-75
2022/06/06 15:58:56;;;;;;;2.95;1.25;;;21.10;99.90;;;;;;5075760;28;20306;-75
2022/06/06 16:02:04;;;;;;;1.45;1.40;;;21.20;99.90;;;;;;5075731;28;20637;-76
2022/06/06 16:04:45;;;;;;;1.13;1.13;;;21.70;99.90;;;;;;5075696;28;20172;-75
2022/06/06 16:07:26;;;;;;;1.65;1.10;;;21.70;99.90;;;;;;5075227;28;20182;-75
2022/06/06 16:10:13;;;;;;;1.27;1.00;;;21.30;99.90;;;;;;5074393;28;20536;-75
2022/06/06 16:12:51;;;;;;;1.52;1.52;;;21.00;99.90;;;;;;5075552;28;20237;-75
2022/06/06 16:15:41;;;;;;;3.38;1.48;;;20.80;99.90;;;;;;5075469;28;20223;-75
2022/06/06 16:18:36;;;;;;;1.23;1.13;;;20.70;99.90;;;;;;5075411;28;20590;-75
2022/06/06 16:21:18;;;;;;;1.45;1.35;;;20.40;99.90;;;;;;5075429;28;20172;-75
2022/06/06 16:23:47;;;;;;;4.53;1.33;;;20.40;99.90;;;;;;5075392;28;20171;-75
2022/06/06 16:26:17;;;;;;;1.35;1.25;;;20.30;99.90;;;;;;5075354;28;20257;-75
2022/06/06 16:28:52;;;;;;;1.30;1.20;;;20.40;99.90;;;;;;5075332;28;20164;-75
2022/06/06 16:31:34;;;;;;;2.75;1.20;;;20.10;99.90;;;;;;5075210;28;20170;-75
2022/06/06 16:34:45;;;;;;;1.92;1.20;;;19.90;99.90;;;;;;5074916;28;20242;-75
2022/06/06 16:37:14;;;;;;;1.73;1.10;;;19.80;99.90;;;;;;5074782;28;20186;-75
2022/06/06 16:39:50;;;;;;;1.05;0.98;;;19.80;99.90;;;;;;5074994;28;20168;-75
2022/06/06 16:48:41;;;;;;;2.47;1.20;;;19.70;99.90;;;;;;5074667;28;20233;-75
2022/06/06 16:51:42;;;;;;;1.35;1.10;;;19.70;99.90;;;;;;5074807;28;20254;-75
2022/06/06 16:54:50;;;;;;;2.63;1.20;;;19.50;99.90;;;;;;5055911;28;20356;-75
2022/06/06 16:57:42;;;;;;;3.08;1.30;;;19.30;99.90;;;;;;5073405;28;20180;-75
2022/06/06 17:00:42;;;;;;;4.35;1.05;;;19.10;99.90;;;;;;5073387;28;20175;-75
2022/06/06 17:03:34;;;;;;;4.65;1.05;;;18.90;99.90;;;;;;5074577;28;20172;-75
2022/06/06 17:09:42;;;;;;;2.08;0.93;;;18.60;99.90;;;;;;5074767;28;20267;-75
2022/06/06 17:12:16;;;;;;;1.10;1.00;;;18.50;99.90;;;;;;5073165;28;20217;-75
2022/06/06 17:14:42;;;;;;;1.13;1.10;;;18.50;99.90;;;;;;5073006;28;20603;-75
2022/06/06 17:17:11;;;;;;;1.95;1.30;;;18.60;99.90;;;;;;5074181;28;20225;-75
2022/06/06 17:19:36;;;;;;;1.58;1.10;;;18.50;99.90;;;;;;5073478;28;20163;-75
2022/06/06 17:22:09;;;;;;;3.17;0.93;;;18.50;99.90;;;;;;5074165;28;20522;-75
2022/06/06 17:24:37;;;;;;;1.33;1.30;;;18.50;99.90;;;;;;5074196;28;20164;-75
2022/06/06 17:27:11;;;;;;;6.20;1.67;;;18.50;99.90;;;;;;5072799;28;20225;-75
2022/06/06 17:29:54;;;;;;;1.10;1.10;;;18.40;99.90;;;;;;5074055;28;20218;-75
2022/06/06 17:32:34;;;;;;;1.30;1.20;;;18.30;99.90;;;;;;5073889;28;20179;-75
2022/06/06 17:35:18;;;;;;;7.30;1.83;;;18.20;99.90;;;;;;5073699;28;20349;-75
2022/06/06 17:37:56;;;;;;;3.70;1.20;;;18.20;99.90;;;;;;5073903;28;20532;-75
2022/06/06 17:40:27;;;;;;;2.15;1.25;;;18.20;99.90;;;;;;5073797;28;20172;-75
2022/06/06 17:42:55;;;;;;;1.10;1.10;;;18.10;99.90;;;;;;5073798;28;20170;-74
2022/06/06 17:45:34;;;;;;;6.15;1.27;;;18.10;99.90;;;;;;5073676;28;20507;-74
2022/06/06 17:48:16;;;;;;;2.05;1.05;;;18.10;99.90;;;;;;5073685;28;20172;-75
2022/06/06 17:51:20;;;;;;;1.58;1.48;;;18.00;99.90;;;;;;5073688;28;20176;-74
2022/06/06 17:53:55;;;;;;;1.58;1.30;;;18.00;99.90;;;;;;5072293;28;20211;-74
2022/06/06 17:56:36;;;;;;;1.00;1.00;;;18.00;99.90;;;;;;5072241;28;20171;-74
